Time;durP1;ratioP1;P1;durP2;ratioP2;P2;SDS_P1;SDS_P2;PMS_P1;PMS_P2;Temp;Humidity;BMP_temperature;BMP_pressure;BME280_temperature;BME280_humidity;BME280_pressure;Samples;Min_cycle;Max_cycle;Signal;HPM_P1;HPM_P2
2022/05/02 00:02:11;;;;;;;34.88;24.67;;;;;;;4.23;85.19;101917.09;10412382;28;20060;-77
2022/05/02 00:07:12;;;;;;;31.77;21.42;;;;;;;4.22;85.30;101915.25;10412044;28;20049;-77
2022/05/02 00:12:12;;;;;;;36.33;22.48;;;;;;;4.20;85.64;101906.44;10431636;28;20049;-77
2022/05/02 00:17:13;;;;;;;30.52;22.73;;;;;;;4.17;86.12;101904.50;10454343;28;20025;-77
2022/05/02 00:22:13;;;;;;;36.13;24.27;;;;;;;4.20;86.64;101903.84;10434500;28;20104;-77
2022/05/02 00:27:14;;;;;;;37.75;27.23;;;;;;;4.28;86.87;101900.25;10380867;28;20057;-77
2022/05/02 00:32:14;;;;;;;42.00;24.13;;;;;;;4.28;86.65;101899.38;10442537;28;20492;-77
2022/05/02 00:37:15;;;;;;;31.08;22.85;;;;;;;4.29;87.13;101891.72;10443227;28;20140;-77
2022/05/02 00:42:16;;;;;;;38.15;22.58;;;;;;;4.27;86.72;101901.03;10441988;28;20033;-77
2022/05/02 00:47:18;;;;;;;41.22;24.85;;;;;;;4.20;86.52;101891.81;10441719;28;20536;-77
2022/05/02 00:52:19;;;;;;;43.05;25.65;;;;;;;4.13;86.92;101888.53;10459805;28;20044;-77
2022/05/02 00:57:19;;;;;;;36.75;24.50;;;;;;;4.15;87.12;101882.72;10441416;28;20116;-77
2022/05/02 01:02:20;;;;;;;35.80;24.27;;;;;;;4.03;86.82;101874.72;10440680;28;20485;-77
2022/05/02 01:07:21;;;;;;;36.65;26.80;;;;;;;3.92;86.97;101878.97;10469149;28;20056;-77
2022/05/02 01:12:24;;;;;;;34.63;24.35;;;;;;;3.84;87.42;101879.94;10500218;28;20440;-77
2022/05/02 01:17:24;;;;;;;42.88;27.13;;;;;;;3.80;87.27;101878.75;10482855;28;20028;-77
2022/05/02 01:22:25;;;;;;;39.92;26.13;;;;;;;3.74;88.15;101883.34;10498418;28;20103;-77
2022/05/02 01:27:25;;;;;;;33.42;26.65;;;;;;;3.72;87.94;101876.25;10500166;28;20045;-77
2022/05/02 01:32:26;;;;;;;38.70;26.40;;;;;;;3.65;88.28;101870.50;10498367;28;20083;-77
2022/05/02 01:37:26;;;;;;;39.17;27.15;;;;;;;3.58;88.22;101869.78;10498988;28;20052;-77
2022/05/02 01:42:27;;;;;;;42.00;26.33;;;;;;;3.51;87.86;101869.22;10497628;28;20059;-77
2022/05/02 01:47:28;;;;;;;37.95;28.95;;;;;;;3.45;88.18;101868.66;10498475;28;20140;-77
2022/05/02 01:52:28;;;;;;;40.67;26.58;;;;;;;3.36;88.54;101863.53;10497290;28;20117;-77
2022/05/02 01:57:29;;;;;;;43.17;29.42;;;;;;;3.29;88.95;101868.00;10497435;28;20074;-77
2022/05/02 02:02:29;;;;;;;42.22;29.02;;;;;;;3.20;88.79;101868.06;10498107;28;20082;-77
2022/05/02 02:07:30;;;;;;;47.15;30.15;;;;;;;3.11;88.55;101867.19;10478759;28;20048;-77
2022/05/02 02:12:30;;;;;;;43.88;30.63;;;;;;;3.04;89.14;101865.69;10496281;28;20043;-77
2022/05/02 02:17:31;;;;;;;50.17;33.60;;;;;;;2.97;89.29;101863.28;10497991;28;20440;-76
2022/05/02 02:22:31;;;;;;;49.22;32.50;;;;;;;2.84;89.03;101862.13;10496993;28;20029;-76
2022/05/02 02:27:32;;;;;;;47.65;33.65;;;;;;;2.75;89.47;101864.78;10495409;28;20064;-77
2022/05/02 02:32:32;;;;;;;43.95;30.20;;;;;;;2.67;89.27;101857.03;10495435;28;20098;-77
2022/05/02 02:37:33;;;;;;;48.67;33.15;;;;;;;2.60;89.75;101848.69;10495660;28;20610;-77
2022/05/02 02:42:33;;;;;;;44.85;31.70;;;;;;;2.54;89.91;101855.88;10497073;28;20460;-77
2022/05/02 02:47:34;;;;;;;51.00;32.00;;;;;;;2.46;89.65;101844.81;10495305;28;20048;-77
2022/05/02 02:52:35;;;;;;;50.63;32.42;;;;;;;2.51;90.17;101854.69;10493735;28;20106;-77
2022/05/02 02:57:35;;;;;;;52.63;36.97;;;;;;;2.41;90.12;101838.28;10478035;28;20052;-76
2022/05/02 03:02:40;;;;;;;49.60;33.67;;;;;;;2.33;89.77;101842.69;10478101;28;20036;-77
2022/05/02 03:07:40;;;;;;;45.72;33.55;;;;;;;2.28;89.92;101836.19;10493983;28;20036;-77
2022/05/02 03:12:41;;;;;;;56.33;33.97;;;;;;;2.32;91.25;101832.25;10495337;28;20076;-77
2022/05/02 03:17:41;;;;;;;55.08;36.60;;;;;;;2.39;91.35;101836.31;10493677;28;20025;-77
2022/05/02 03:22:42;;;;;;;53.47;36.05;;;;;;;2.34;91.21;101826.44;10492972;28;20518;-77
2022/05/02 03:27:42;;;;;;;57.22;32.45;;;;;;;2.32;91.35;101821.91;10494270;28;20503;-77
2022/05/02 03:32:43;;;;;;;55.15;34.30;;;;;;;2.24;91.39;101815.97;10495483;28;20137;-76
2022/05/02 03:37:43;;;;;;;51.72;33.60;;;;;;;2.20;91.45;101819.03;10476411;28;20476;-77
2022/05/02 03:42:44;;;;;;;49.90;34.55;;;;;;;2.28;91.78;101824.97;10493126;28;20075;-77
2022/05/02 03:47:44;;;;;;;55.35;37.75;;;;;;;2.46;92.22;101812.88;10494038;28;20078;-77
2022/05/02 03:52:45;;;;;;;59.97;39.88;;;;;;;2.41;92.57;101819.28;10476657;28;20064;-77
2022/05/02 03:57:45;;;;;;;54.53;33.72;;;;;;;2.30;92.77;101824.31;10494378;28;20063;-77
2022/05/02 04:02:46;;;;;;;61.15;38.70;;;;;;;2.24;92.43;101823.72;10497443;28;20033;-76
2022/05/02 04:07:46;;;;;;;64.20;35.05;;;;;;;2.18;92.41;101829.22;10502336;28;20135;-77
2022/05/02 04:12:47;;;;;;;51.78;36.08;;;;;;;2.19;92.63;101823.31;10501865;28;20127;-77
2022/05/02 04:17:47;;;;;;;56.13;36.05;;;;;;;2.22;92.92;101822.69;10501715;28;20105;-77
2022/05/02 04:22:48;;;;;;;70.53;42.05;;;;;;;2.29;93.67;101826.78;10503574;28;20060;-77
2022/05/02 04:27:48;;;;;;;65.38;42.17;;;;;;;2.33;93.58;101829.78;10501952;28;20483;-77
2022/05/02 04:32:49;;;;;;;61.17;39.17;;;;;;;2.44;94.12;101820.50;10501860;28;20181;-77
2022/05/02 04:37:49;;;;;;;60.42;38.78;;;;;;;2.52;93.93;101823.78;10484073;28;20579;-77
2022/05/02 04:42:50;;;;;;;74.82;41.90;;;;;;;2.49;94.29;101826.09;10500738;28;20170;-77
2022/05/02 04:47:50;;;;;;;56.80;40.35;;;;;;;2.54;93.99;101830.03;10500480;28;20036;-77
2022/05/02 04:52:51;;;;;;;57.20;40.90;;;;;;;2.62;94.62;101821.31;10501005;28;20064;-77
2022/05/02 04:57:51;;;;;;;66.80;41.00;;;;;;;2.70;94.48;101823.72;10500261;28;20468;-77
2022/05/02 05:02:52;;;;;;;62.60;43.08;;;;;;;2.79;94.79;101829.75;10499412;28;20059;-77
2022/05/02 05:07:52;;;;;;;66.57;42.28;;;;;;;2.89;94.91;101835.03;10470341;28;20049;-77
2022/05/02 05:13:03;;;;;;;60.17;37.75;;;;;;;3.06;94.88;101831.47;10459113;28;20040;-77
2022/05/02 05:18:07;;;;;;;59.63;41.60;;;;;;;3.32;95.19;101824.28;10441595;28;20067;-76
2022/05/02 05:23:16;;;;;;;62.70;43.13;;;;;;;3.64;95.71;101831.50;10440820;28;20033;-77
2022/05/02 05:28:37;;;;;;;63.85;40.83;;;;;;;4.04;95.93;101826.44;10457965;28;20035;-77
2022/05/02 05:33:51;;;;;;;56.73;38.13;;;;;;;4.49;96.03;101830.34;10458552;28;20059;-77
2022/05/02 05:39:05;;;;;;;53.00;35.53;;;;;;;5.25;95.86;101829.97;10439914;28;20057;-77
2022/05/02 05:44:25;;;;;;;38.97;25.23;;;;;;;7.31;90.71;101824.69;10424909;28;20021;-77
2022/05/02 05:49:44;;;;;;;27.05;20.42;;;;;;;9.37;75.72;101821.97;10439654;28;20029;-77
2022/05/02 05:54:59;;;;;;;27.73;19.88;;;;;;;10.74;68.42;101825.53;10440195;28;20412;-77
2022/05/02 06:00:06;;;;;;;22.15;18.45;;;;;;;12.25;62.10;101820.44;10438861;28;20473;-77
2022/05/02 06:05:07;;;;;;;32.03;19.25;;;;;;;13.39;57.85;101818.59;10456980;28;20051;-77
2022/05/02 06:10:09;;;;;;;20.08;16.08;;;;;;;14.35;54.04;101815.41;10422320;28;20043;-77
2022/05/02 06:20:39;;;;;;;21.80;15.93;;;;;;;15.64;50.73;101815.84;10427671;28;20037;-77
2022/05/02 06:25:39;;;;;;;23.10;15.07;;;;;;;16.29;48.22;101818.50;10438020;28;20037;-78
2022/05/02 06:30:41;;;;;;;22.00;15.93;;;;;;;16.68;46.01;101814.69;10421119;28;20044;-77
2022/05/02 06:35:51;;;;;;;18.80;15.13;;;;;;;16.37;47.70;101809.13;10422127;28;20086;-77
2022/05/02 06:41:15;;;;;;;17.98;14.77;;;;;;;17.43;44.22;101818.28;10437896;28;20032;-77
2022/05/02 06:46:19;;;;;;;18.60;14.43;;;;;;;18.14;43.23;101815.34;10439650;28;20033;-77
2022/05/02 06:51:36;;;;;;;18.75;14.80;;;;;;;18.89;40.08;101815.81;10455007;28;20033;-77
2022/05/02 06:56:48;;;;;;;16.50;13.95;;;;;;;18.87;41.16;101806.91;10422183;28;20029;-77
2022/05/02 07:01:58;;;;;;;17.40;13.45;;;;;;;19.34;40.57;101806.44;10436799;28;20464;-77
2022/05/02 07:07:25;;;;;;;15.95;14.18;;;;;;;19.65;41.35;101796.59;10436609;28;20058;-77
2022/05/02 07:12:26;;;;;;;16.38;12.70;;;;;;;20.34;38.33;101798.22;10420947;28;20427;-77
2022/05/02 07:17:47;;;;;;;16.93;12.00;;;;;;;21.03;37.06;101801.44;10426267;28;20021;-77
2022/05/02 07:23:11;;;;;;;17.90;13.75;;;;;;;21.68;34.83;101797.28;10413832;28;20025;-77
2022/05/02 07:28:46;;;;;;;18.50;12.05;;;;;;;21.86;35.61;101795.78;10413115;28;20025;-77
2022/05/02 07:33:48;;;;;;;18.77;15.13;;;;;;;22.32;35.52;101792.94;10365446;28;20538;-76
2022/05/02 07:39:04;;;;;;;17.75;13.23;;;;;;;22.65;34.15;101796.03;10397592;28;20047;-77
2022/05/02 07:44:06;;;;;;;14.45;12.95;;;;;;;22.90;34.36;101794.56;10440977;28;20402;-77
2022/05/02 07:49:07;;;;;;;;;;;;;;;23.11;32.17;101793.00;10435804;28;20025;-78
2022/05/02 07:54:07;;;;;;;14.82;10.85;;;;;;;23.29;32.88;101794.97;10423089;28;19917;-76
2022/05/02 07:59:08;;;;;;;14.87;12.23;;;;;;;23.73;32.47;101786.44;10415447;28;20036;-75
2022/05/02 08:04:11;;;;;;;11.90;9.97;;;;;;;24.15;30.69;101785.84;10394866;28;20068;-76
2022/05/02 08:09:37;;;;;;;18.85;11.43;;;;;;;23.58;31.96;101786.31;10429258;28;20096;-75
2022/05/02 08:14:59;;;;;;;12.88;9.85;;;;;;;24.15;31.09;101786.75;10443518;28;20063;-75
2022/05/02 08:20:23;;;;;;;11.57;9.65;;;;;;;23.98;30.29;101780.38;10435490;28;20124;-75
2022/05/02 08:31:12;;;;;;;14.60;9.48;;;;;;;25.33;28.62;101772.88;10417896;28;20033;-76
2022/05/02 08:36:45;;;;;;;15.85;10.70;;;;;;;25.75;27.80;101780.94;10446768;28;20039;-75
2022/05/02 08:42:18;;;;;;;14.02;11.00;;;;;;;25.01;28.05;101771.03;10416522;28;20071;-76
2022/05/02 08:48:00;;;;;;;15.75;11.25;;;;;;;24.70;28.21;101773.59;10417401;28;20499;-76
2022/05/02 08:53:05;;;;;;;15.60;12.10;;;;;;;25.49;27.82;101776.50;10458948;28;20522;-76
2022/05/02 08:58:24;;;;;;;17.08;10.52;;;;;;;25.78;28.81;101771.09;10458882;28;20032;-76
2022/05/02 09:03:49;;;;;;;13.18;7.07;;;;;;;26.22;27.00;101768.34;10456617;28;20048;-75
2022/05/02 09:09:12;;;;;;;12.23;10.10;;;;;;;26.49;25.87;101769.13;10488699;28;20040;-76
2022/05/02 09:14:24;;;;;;;11.50;9.35;;;;;;;26.30;26.93;101763.84;10489144;28;20037;-75
2022/05/02 09:19:49;;;;;;;14.63;9.85;;;;;;;26.01;28.25;101761.22;10488504;28;20032;-76
2022/05/02 09:25:10;;;;;;;15.35;9.35;;;;;;;27.26;27.03;101767.81;10479803;28;20496;-75
2022/05/02 09:30:37;;;;;;;18.30;12.15;;;;;;;26.86;27.28;101758.22;10474873;28;20444;-76
2022/05/02 09:35:52;;;;;;;11.65;10.43;;;;;;;25.76;26.37;101762.16;10477411;28;20541;-76
2022/05/02 09:40:59;;;;;;;12.98;9.90;;;;;;;25.32;27.53;101755.00;10471397;28;20083;-75
2022/05/02 09:52:09;;;;;;;12.10;10.45;;;;;;;26.38;27.71;101747.72;10457883;28;20060;-75
2022/05/02 09:57:22;;;;;;;20.45;12.70;;;;;;;27.44;25.48;101745.25;10445881;28;20080;-76
2022/05/02 10:02:23;;;;;;;14.95;12.50;;;;;;;23.41;29.79;101740.78;10483514;28;20028;-77
2022/05/02 10:07:24;;;;;;;14.03;11.47;;;;;;;22.35;32.82;101736.97;10478712;28;20132;-77
2022/05/02 10:12:40;;;;;;;13.03;11.67;;;;;;;21.18;34.15;101738.72;10457315;28;20041;-77
2022/05/02 10:18:04;;;;;;;17.67;13.02;;;;;;;19.07;37.55;101748.25;10464350;28;20032;-77
2022/05/02 10:23:39;;;;;;;14.80;12.65;;;;;;;22.74;34.16;101737.44;10478609;28;20111;-77
2022/05/02 10:29:16;;;;;;;20.25;12.90;;;;;;;24.75;31.99;101734.41;10482019;28;20064;-77
2022/05/02 10:34:20;;;;;;;15.52;12.38;;;;;;;26.88;27.35;101728.69;10479733;28;20083;-77
2022/05/02 10:39:23;;;;;;;14.68;13.18;;;;;;;23.60;30.97;101728.44;10459311;28;20249;-77
2022/05/02 10:44:28;;;;;;;15.18;13.13;;;;;;;22.95;30.46;101723.44;10475442;28;20400;-77
2022/05/02 10:49:28;;;;;;;15.82;13.52;;;;;;;24.59;29.74;101717.41;10464974;28;20119;-77
2022/05/02 10:54:43;;;;;;;17.37;13.30;;;;;;;26.43;29.27;101708.34;10481618;28;20037;-77
2022/05/02 10:59:45;;;;;;;15.77;13.55;;;;;;;27.02;26.27;101709.78;10467902;28;20037;-77
2022/05/02 11:04:54;;;;;;;15.07;12.82;;;;;;;25.35;27.89;101693.38;10463784;28;20080;-77
2022/05/02 11:09:55;;;;;;;13.75;11.43;;;;;;;25.97;27.94;101695.97;10423775;28;20453;-77
2022/05/02 11:15:18;;;;;;;16.83;13.07;;;;;;;26.23;28.78;101695.00;10420521;28;20068;-77
2022/05/02 11:20:45;;;;;;;16.77;12.13;;;;;;;26.62;25.55;101690.31;10409441;28;20089;-77
2022/05/02 11:26:32;;;;;;;17.10;13.73;;;;;;;26.73;28.58;101681.31;10410960;28;20038;-77
2022/05/02 11:31:40;;;;;;;16.08;13.48;;;;;;;26.84;24.98;101675.91;10437769;28;20049;-77
2022/05/02 11:36:44;;;;;;;15.27;12.93;;;;;;;27.77;24.79;101673.25;10399149;28;20037;-77
2022/05/02 11:41:45;;;;;;;23.92;14.98;;;;;;;27.58;25.17;101667.19;10440390;28;20366;-77
2022/05/02 11:47:06;;;;;;;;;;;;;;;25.36;26.44;101666.63;10407190;28;20033;-77
2022/05/02 11:52:09;;;;;;;14.85;10.98;;;;;;;25.35;29.44;101663.91;10425147;28;19923;-75
2022/05/02 11:57:11;;;;;;;16.27;13.43;;;;;;;27.08;25.32;101662.28;10441560;28;20057;-76
2022/05/02 12:02:29;;;;;;;15.07;12.75;;;;;;;26.93;26.64;101665.97;10452335;28;20040;-76
2022/05/02 12:07:31;;;;;;;13.10;10.63;;;;;;;27.02;24.63;101659.63;10433311;28;20045;-77
2022/05/02 12:12:32;;;;;;;13.80;12.40;;;;;;;26.00;26.99;101665.59;10483389;28;20110;-77
2022/05/02 12:17:32;;;;;;;14.27;10.93;;;;;;;26.90;25.80;101655.25;10466902;28;20041;-77
2022/05/02 12:22:34;;;;;;;16.93;12.30;;;;;;;26.20;25.86;101661.06;10466790;28;20024;-77
2022/05/02 12:27:34;;;;;;;20.63;14.00;;;;;;;26.34;28.96;101657.41;10467977;28;20029;-77
2022/05/02 12:32:36;;;;;;;15.73;13.57;;;;;;;27.69;25.83;101640.19;10478083;28;20149;-76
2022/05/02 12:37:39;;;;;;;19.67;13.55;;;;;;;28.31;25.56;101649.31;10470467;28;20075;-75
2022/05/02 12:42:46;;;;;;;13.85;10.77;;;;;;;28.26;24.52;101647.56;10478439;28;20029;-74
2022/05/02 12:47:52;;;;;;;14.25;12.00;;;;;;;27.53;26.62;101636.78;10497075;28;20115;-73
2022/05/02 12:52:55;;;;;;;15.13;11.70;;;;;;;27.38;25.33;101643.16;10482134;28;20035;-73
2022/05/02 13:03:21;;;;;;;17.95;10.65;;;;;;;28.16;24.13;101626.16;10501259;28;20052;-75
2022/05/02 13:08:43;;;;;;;13.48;11.68;;;;;;;25.47;27.83;101626.41;10488691;28;20103;-73
2022/05/02 13:13:46;;;;;;;19.90;15.00;;;;;;;22.43;31.54;101627.72;10473803;28;20377;-73
2022/05/02 13:18:49;;;;;;;17.63;11.88;;;;;;;20.62;35.13;101628.63;10494779;28;20056;-74
2022/05/02 13:23:51;;;;;;;18.65;13.05;;;;;;;20.07;34.47;101616.06;10498867;28;20794;-75
2022/05/02 13:29:05;;;;;;;18.73;12.18;;;;;;;22.34;30.82;101608.94;10489366;28;20036;-75
2022/05/02 13:34:06;;;;;;;16.52;14.15;;;;;;;21.99;33.87;101608.56;10479961;28;20055;-75
2022/05/02 13:39:08;;;;;;;15.57;11.80;;;;;;;19.90;37.34;101610.41;10492320;28;20028;-75
2022/05/02 13:44:25;;;;;;;17.17;10.88;;;;;;;19.08;37.62;101598.81;10480897;28;20021;-74
2022/05/02 13:49:43;;;;;;;21.30;12.48;;;;;;;19.20;38.39;101600.88;10481145;28;20115;-75
2022/05/02 13:54:48;;;;;;;14.60;10.68;;;;;;;19.35;36.08;101597.69;10476129;28;20032;-74
2022/05/02 14:00:24;;;;;;;15.00;11.45;;;;;;;20.91;35.52;101588.38;10467882;28;20061;-74
2022/05/02 14:05:33;;;;;;;15.60;13.38;;;;;;;22.62;33.15;101572.81;10469113;28;20493;-74
2022/05/02 14:10:51;;;;;;;19.43;11.87;;;;;;;23.72;32.65;101565.53;10415901;28;20042;-74
2022/05/02 14:15:53;;;;;;;15.85;14.18;;;;;;;23.87;30.56;101570.06;10387739;28;20086;-75
2022/05/02 14:21:00;;;;;;;16.02;11.65;;;;;;;24.38;31.15;101563.06;10456005;28;20029;-75
2022/05/02 14:26:02;;;;;;;16.63;13.45;;;;;;;23.55;32.13;101567.22;10433036;28;20144;-75
2022/05/02 14:31:03;;;;;;;14.98;11.68;;;;;;;24.79;28.70;101559.53;10433654;28;20045;-75
2022/05/02 14:36:07;;;;;;;14.10;9.97;;;;;;;25.23;27.10;101552.34;10426101;28;20024;-76
2022/05/02 14:41:08;;;;;;;12.52;11.27;;;;;;;22.82;31.79;101558.75;10435986;28;20386;-74
2022/05/02 14:46:09;;;;;;;12.83;11.23;;;;;;;23.41;29.77;101560.03;10418594;28;20045;-75
2022/05/02 14:51:09;;;;;;;13.60;10.80;;;;;;;23.35;29.83;101548.44;10430794;28;20071;-75
2022/05/02 14:56:12;;;;;;;11.17;10.03;;;;;;;23.48;31.13;101546.72;10438020;28;20041;-75
2022/05/02 15:01:15;;;;;;;19.38;11.90;;;;;;;23.24;30.78;101551.03;10430572;28;20538;-75
2022/05/02 15:06:24;;;;;;;12.65;11.05;;;;;;;21.56;32.94;101546.72;10399655;28;20045;-75
2022/05/02 15:11:46;;;;;;;14.48;10.13;;;;;;;19.85;36.49;101548.31;10421447;28;20045;-75
2022/05/02 15:17:05;;;;;;;14.50;11.20;;;;;;;20.65;35.56;101536.50;10426294;28;20485;-74
2022/05/02 15:22:24;;;;;;;13.00;9.45;;;;;;;20.96;33.27;101531.72;10420420;28;20040;-75
2022/05/02 15:36:39;;;;;;;14.52;10.52;;;;;;;19.58;35.04;101525.63;10435676;28;20128;-76
2022/05/02 15:38:22;;;;;;;14.38;10.15;;;;;;;19.22;38.30;101519.53;10439416;28;20032;-76
2022/05/02 15:43:23;;;;;;;12.20;10.18;;;;;;;19.30;37.87;101514.41;10435197;28;20033;-76
2022/05/02 15:48:36;;;;;;;14.45;9.82;;;;;;;19.22;38.80;101515.16;10435338;28;20021;-76
2022/05/02 15:53:37;;;;;;;13.32;9.85;;;;;;;19.16;38.03;101511.44;10452740;28;20049;-76
2022/05/02 15:59:01;;;;;;;11.77;9.52;;;;;;;19.06;38.63;101510.34;10453405;28;20056;-76
2022/05/02 16:04:21;;;;;;;15.18;10.50;;;;;;;19.21;36.48;101512.44;10418515;28;20040;-76
2022/05/02 16:14:43;;;;;;;12.15;9.32;;;;;;;18.88;38.46;101511.69;10452753;28;20500;-76
2022/05/02 16:19:44;;;;;;;14.65;10.48;;;;;;;18.66;37.40;101504.06;10452231;28;20508;-76
2022/05/02 16:24:48;;;;;;;15.30;10.77;;;;;;;18.25;39.28;101502.16;10433774;28;20063;-76
2022/05/02 16:29:56;;;;;;;10.60;8.43;;;;;;;18.19;40.03;101503.78;10451321;28;20082;-76
2022/05/02 16:34:57;;;;;;;13.82;10.18;;;;;;;17.97;39.09;101497.00;10452691;28;20072;-75
2022/05/02 16:39:57;;;;;;;16.95;9.75;;;;;;;17.56;41.83;101502.91;10449960;28;20087;-75
2022/05/02 16:45:00;;;;;;;13.32;9.90;;;;;;;17.46;41.97;101498.19;10434492;28;20115;-76
2022/05/02 16:50:01;;;;;;;13.95;10.63;;;;;;;17.46;40.69;101498.19;10451679;28;20045;-76
2022/05/02 16:55:02;;;;;;;13.57;9.90;;;;;;;17.41;40.40;101497.16;10447672;28;20495;-75
2022/05/02 17:00:31;;;;;;;10.90;8.43;;;;;;;17.22;41.98;101509.84;10436476;28;20037;-74
2022/05/02 17:05:42;;;;;;;16.50;9.98;;;;;;;17.01;42.31;101502.16;10451360;28;20406;-75
2022/05/02 17:10:46;;;;;;;14.38;10.43;;;;;;;16.80;43.17;101499.69;10439354;28;20388;-76
2022/05/02 17:16:06;;;;;;;18.33;9.48;;;;;;;16.59;44.13;101503.41;10426361;28;20041;-76
2022/05/02 17:21:14;;;;;;;14.35;10.93;;;;;;;16.41;43.92;101498.44;10442980;28;20037;-76
2022/05/02 17:26:17;;;;;;;15.93;11.23;;;;;;;16.19;43.82;101505.63;10439700;28;20024;-76
2022/05/02 17:31:21;;;;;;;15.07;10.65;;;;;;;15.99;45.74;101507.53;10459126;28;20051;-76
2022/05/02 17:36:21;;;;;;;16.38;12.20;;;;;;;15.70;46.37;101510.00;10440778;28;20044;-76
2022/05/02 17:41:22;;;;;;;17.08;11.10;;;;;;;15.40;47.52;101510.63;10457486;28;20065;-76
2022/05/02 17:46:35;;;;;;;14.57;10.73;;;;;;;15.15;47.73;101504.41;10457548;28;20102;-76
2022/05/02 17:51:38;;;;;;;16.77;11.05;;;;;;;14.98;48.49;101514.31;10423932;28;20500;-76
2022/05/02 17:56:40;;;;;;;20.92;13.50;;;;;;;14.97;47.49;101509.88;10456784;28;20492;-76
2022/05/02 18:01:43;;;;;;;;;;;;;;;14.90;47.53;101516.63;10423038;28;20051;-76
2022/05/02 18:06:43;;;;;;;;;;;;;;;14.57;49.05;101513.50;10456814;28;19952;-76
2022/05/02 18:17:46;;;;;;;14.52;11.85;;;;;;;14.33;48.60;101525.69;10441607;28;20291;-76
2022/05/02 18:23:01;;;;;;;17.63;12.25;;;;;;;14.18;49.71;101525.94;10444970;28;20033;-75
2022/05/02 18:28:17;;;;;;;14.38;10.90;;;;;;;14.07;48.92;101540.34;10432653;28;20041;-76
2022/05/02 18:33:20;;;;;;;16.48;11.52;;;;;;;13.94;48.98;101545.06;10456374;28;20512;-76
2022/05/02 18:38:28;;;;;;;16.75;12.23;;;;;;;13.72;50.62;101550.19;10395148;28;20037;-76
2022/05/02 18:43:37;;;;;;;15.73;10.32;;;;;;;13.35;51.37;101547.63;10381207;28;20026;-76
2022/05/02 18:53:58;;;;;;;17.90;12.65;;;;;;;12.02;56.35;101559.41;10399138;28;20073;-77
2022/05/02 18:59:00;;;;;;;20.20;13.63;;;;;;;11.68;57.37;101552.34;10392592;28;20111;-75
2022/05/02 19:04:02;;;;;;;17.73;13.32;;;;;;;11.52;57.41;101561.06;10407101;28;20067;-75
2022/05/02 19:09:03;;;;;;;19.35;12.60;;;;;;;11.53;57.49;101573.38;10439461;28;20037;-75
2022/05/02 19:14:04;;;;;;;18.45;13.48;;;;;;;11.43;58.12;101585.06;10417669;28;20403;-75
2022/05/02 19:19:05;;;;;;;21.50;12.98;;;;;;;11.26;58.22;101591.97;10417726;28;20067;-75
2022/05/02 19:24:12;;;;;;;18.08;12.45;;;;;;;11.01;58.33;101595.81;10430951;28;20045;-74
2022/05/02 19:29:13;;;;;;;14.40;10.80;;;;;;;10.86;58.85;101607.22;10403094;28;20060;-75
2022/05/02 19:39:45;;;;;;;14.20;8.93;;;;;;;10.61;59.86;101606.56;10399328;28;20293;-74
2022/05/02 19:44:54;;;;;;;16.05;9.95;;;;;;;10.53;60.09;101614.88;10389984;28;20485;-75
2022/05/02 19:49:55;;;;;;;17.30;9.98;;;;;;;10.50;60.14;101611.19;10436945;28;20051;-76
2022/05/02 19:54:58;;;;;;;13.82;8.50;;;;;;;10.36;60.91;101620.78;10419704;28;20107;-76
2022/05/02 19:59:59;;;;;;;14.70;8.98;;;;;;;10.13;61.90;101618.59;10421114;28;20041;-76
2022/05/02 20:04:59;;;;;;;14.23;8.73;;;;;;;10.25;61.83;101628.00;10433348;28;20118;-76
2022/05/02 20:10:00;;;;;;;12.63;8.80;;;;;;;10.23;62.43;101627.00;10403837;28;20041;-76
2022/05/02 20:15:00;;;;;;;15.43;9.13;;;;;;;10.11;62.59;101635.88;10399779;28;20377;-76
2022/05/02 20:20:01;;;;;;;16.10;11.40;;;;;;;10.11;62.76;101640.22;10453040;28;20076;-76
2022/05/02 20:25:02;;;;;;;14.38;9.38;;;;;;;10.04;62.97;101641.56;10436736;28;20029;-76
2022/05/02 20:30:03;;;;;;;17.63;11.02;;;;;;;9.90;64.20;101638.06;10422250;28;20033;-75
2022/05/02 20:40:24;;;;;;;17.25;10.20;;;;;;;9.68;64.56;101643.66;10433162;28;20045;-77
2022/05/02 20:45:26;;;;;;;20.63;9.67;;;;;;;9.50;65.49;101649.50;10440741;28;20542;-76
2022/05/02 20:50:30;;;;;;;18.30;9.07;;;;;;;9.38;66.05;101652.22;10427761;28;20032;-76
2022/05/02 20:55:34;;;;;;;19.00;10.57;;;;;;;9.06;67.49;101664.06;10429176;28;20033;-77
2022/05/02 21:00:34;;;;;;;14.27;8.60;;;;;;;9.22;67.01;101672.91;10445844;28;20024;-76
2022/05/02 21:05:35;;;;;;;15.15;9.02;;;;;;;9.07;67.82;101673.72;10460810;28;20531;-76
2022/05/02 21:10:35;;;;;;;17.65;10.23;;;;;;;9.30;67.51;101673.44;10426960;28;20037;-76
2022/05/02 21:16:15;;;;;;;13.05;9.07;;;;;;;9.67;66.19;101657.53;10425642;28;20496;-76
2022/05/02 21:21:16;;;;;;;11.95;8.07;;;;;;;9.87;65.30;101652.66;10460014;28;20073;-76
2022/05/02 21:26:20;;;;;;;12.45;7.53;;;;;;;9.93;65.08;101661.78;10460847;28;20090;-76
2022/05/02 21:31:47;;;;;;;11.23;7.70;;;;;;;9.83;65.14;101669.84;10458245;28;20164;-76
2022/05/02 21:36:48;;;;;;;11.23;8.70;;;;;;;9.60;66.74;101671.91;10441470;28;20437;-76
2022/05/02 21:41:48;;;;;;;10.85;8.05;;;;;;;9.53;66.80;101670.63;10423891;28;20017;-76
2022/05/02 21:46:49;;;;;;;11.55;7.50;;;;;;;9.64;67.13;101665.19;10424192;28;20029;-76
2022/05/02 21:51:50;;;;;;;16.10;8.30;;;;;;;9.62;67.09;101670.28;10423126;28;20043;-76
2022/05/02 21:56:50;;;;;;;14.52;6.78;;;;;;;9.45;67.83;101661.38;10459820;28;20082;-76
2022/05/02 22:01:50;;;;;;;10.02;7.05;;;;;;;9.44;68.81;101667.41;10406972;28;20059;-75
2022/05/02 22:06:51;;;;;;;14.15;7.72;;;;;;;9.45;68.42;101684.91;10439484;28;20512;-76
2022/05/02 22:11:52;;;;;;;11.45;7.43;;;;;;;9.50;68.45;101685.19;10441711;28;20147;-78
2022/05/02 22:16:52;;;;;;;8.10;6.30;;;;;;;9.49;68.28;101685.97;10455974;28;20057;-75
2022/05/02 22:21:53;;;;;;;12.32;6.38;;;;;;;9.40;69.05;101687.19;10438955;28;20041;-76
2022/05/02 22:26:53;;;;;;;9.05;6.90;;;;;;;9.38;69.16;101682.69;10456710;28;20547;-76
2022/05/02 22:31:54;;;;;;;10.13;5.90;;;;;;;9.27;70.01;101683.69;10458045;28;20029;-76
2022/05/02 22:36:54;;;;;;;9.57;6.15;;;;;;;9.21;70.43;101685.09;10397492;28;20546;-76
2022/05/02 22:41:55;;;;;;;12.43;6.95;;;;;;;9.33;70.42;101690.19;10399840;28;20029;-76
2022/05/02 22:46:56;;;;;;;11.90;7.15;;;;;;;9.51;69.77;101687.91;10429206;28;20057;-76
2022/05/02 22:51:57;;;;;;;12.13;7.03;;;;;;;9.73;69.70;101683.16;10410387;28;20048;-76
2022/05/02 22:56:57;;;;;;;10.45;7.72;;;;;;;9.83;69.29;101688.16;10411495;28;20067;-76
2022/05/02 23:02:03;;;;;;;13.48;6.82;;;;;;;9.89;68.85;101692.88;10417943;28;20029;-76
2022/05/02 23:07:12;;;;;;;8.88;6.07;;;;;;;9.93;68.57;101687.94;10455174;28;20098;-76
2022/05/02 23:12:12;;;;;;;10.40;5.80;;;;;;;9.99;68.06;101692.66;10436383;28;20098;-76
2022/05/02 23:17:13;;;;;;;9.88;6.93;;;;;;;9.99;67.45;101679.59;10436560;28;20086;-76
2022/05/02 23:22:14;;;;;;;7.97;6.18;;;;;;;9.83;68.14;101677.69;10436615;28;20044;-78
2022/05/02 23:27:14;;;;;;;10.32;5.95;;;;;;;9.80;68.27;101674.88;10419640;28;20031;-77
2022/05/02 23:32:34;;;;;;;11.52;6.78;;;;;;;9.79;68.31;101670.47;10436208;28;20065;-77
2022/05/02 23:38:12;;;;;;;10.00;7.65;;;;;;;9.53;68.23;101677.53;10419674;28;20040;-77
2022/05/02 23:43:16;;;;;;;10.77;6.18;;;;;;;9.21;69.51;101671.09;10454536;28;20122;-77
2022/05/02 23:48:43;;;;;;;11.13;7.60;;;;;;;8.96;70.63;101677.31;10436125;28;20460;-77
2022/05/02 23:53:50;;;;;;;14.07;7.25;;;;;;;8.70;70.74;101672.94;10442901;28;20450;-77
2022/05/02 23:58:56;;;;;;;9.35;6.97;;;;;;;8.48;71.37;101669.72;10419445;28;20037;-77
